sensor_id;sensor_type;location;lat;lon;timestamp;temperature;humidity
16736;DHT22;17990;49.548;9.730;2023-08-08T00:01:15;13.60;99.90
16736;DHT22;17990;49.548;9.730;2023-08-08T00:03:41;13.70;99.90
16736;DHT22;17990;49.548;9.730;2023-08-08T00:06:08;13.70;99.90
16736;DHT22;17990;49.548;9.730;2023-08-08T00:08:35;13.80;99.90
16736;DHT22;17990;49.548;9.730;2023-08-08T00:11:03;13.90;99.90
16736;DHT22;17990;49.548;9.730;2023-08-08T00:13:30;14.00;99.90
16736;DHT22;17990;49.548;9.730;2023-08-08T00:15:57;14.10;99.90
16736;DHT22;17990;49.548;9.730;2023-08-08T00:18:24;14.20;99.90
16736;DHT22;17990;49.548;9.730;2023-08-08T00:20:50;14.20;99.90
16736;DHT22;17990;49.548;9.730;2023-08-08T00:23:17;14.20;99.90
16736;DHT22;17990;49.548;9.730;2023-08-08T00:25:44;14.30;99.90
16736;DHT22;17990;49.548;9.730;2023-08-08T00:28:16;14.30;99.90
16736;DHT22;17990;49.548;9.730;2023-08-08T00:30:43;14.30;99.90
16736;DHT22;17990;49.548;9.730;2023-08-08T00:33:10;14.30;99.90
16736;DHT22;17990;49.548;9.730;2023-08-08T00:35:36;14.30;99.90
16736;DHT22;17990;49.548;9.730;2023-08-08T00:38:03;14.30;99.90
16736;DHT22;17990;49.548;9.730;2023-08-08T00:40:30;14.40;99.90
16736;DHT22;17990;49.548;9.730;2023-08-08T00:42:57;14.40;99.90
16736;DHT22;17990;49.548;9.730;2023-08-08T00:45:25;14.40;99.90
16736;DHT22;17990;49.548;9.730;2023-08-08T00:47:51;14.40;99.90
16736;DHT22;17990;49.548;9.730;2023-08-08T00:50:18;14.50;99.90
16736;DHT22;17990;49.548;9.730;2023-08-08T00:52:45;14.40;99.90
16736;DHT22;17990;49.548;9.730;2023-08-08T00:55:12;14.40;99.90
16736;DHT22;17990;49.548;9.730;2023-08-08T00:57:40;14.40;99.90
16736;DHT22;17990;49.548;9.730;2023-08-08T01:00:08;14.40;99.90
16736;DHT22;17990;49.548;9.730;2023-08-08T01:02:37;14.30;99.90
16736;DHT22;17990;49.548;9.730;2023-08-08T01:05:05;14.30;99.90
16736;DHT22;17990;49.548;9.730;2023-08-08T01:07:38;14.30;99.90
16736;DHT22;17990;49.548;9.730;2023-08-08T01:10:09;14.30;99.90
16736;DHT22;17990;49.548;9.730;2023-08-08T01:12:39;14.40;99.90
16736;DHT22;17990;49.548;9.730;2023-08-08T01:15:07;14.30;99.90
16736;DHT22;17990;49.548;9.730;2023-08-08T01:17:36;14.30;99.90
16736;DHT22;17990;49.548;9.730;2023-08-08T01:20:05;14.30;99.90
16736;DHT22;17990;49.548;9.730;2023-08-08T01:22:36;14.30;99.90
16736;DHT22;17990;49.548;9.730;2023-08-08T01:25:07;14.40;99.90
16736;DHT22;17990;49.548;9.730;2023-08-08T01:27:35;14.40;99.90
16736;DHT22;17990;49.548;9.730;2023-08-08T01:30:01;14.30;99.90
16736;DHT22;17990;49.548;9.730;2023-08-08T01:32:29;14.20;99.90
16736;DHT22;17990;49.548;9.730;2023-08-08T01:34:56;14.20;99.90
16736;DHT22;17990;49.548;9.730;2023-08-08T01:37:27;14.20;99.90
16736;DHT22;17990;49.548;9.730;2023-08-08T01:39:57;14.20;99.90
16736;DHT22;17990;49.548;9.730;2023-08-08T01:42:27;14.10;99.90
16736;DHT22;17990;49.548;9.730;2023-08-08T01:44:55;14.10;99.90
16736;DHT22;17990;49.548;9.730;2023-08-08T01:47:22;14.10;99.90
16736;DHT22;17990;49.548;9.730;2023-08-08T01:49:49;14.00;99.90
16736;DHT22;17990;49.548;9.730;2023-08-08T01:52:15;13.80;99.90
16736;DHT22;17990;49.548;9.730;2023-08-08T01:54:42;13.70;99.90
16736;DHT22;17990;49.548;9.730;2023-08-08T01:57:09;13.60;99.90
16736;DHT22;17990;49.548;9.730;2023-08-08T01:59:37;13.50;99.90
16736;DHT22;17990;49.548;9.730;2023-08-08T02:02:04;13.50;99.90
16736;DHT22;17990;49.548;9.730;2023-08-08T02:04:30;13.50;99.90
16736;DHT22;17990;49.548;9.730;2023-08-08T02:06:57;13.50;99.90
16736;DHT22;17990;49.548;9.730;2023-08-08T02:09:24;13.40;99.90
16736;DHT22;17990;49.548;9.730;2023-08-08T02:11:50;13.40;99.90
16736;DHT22;17990;49.548;9.730;2023-08-08T02:14:17;13.30;99.90
16736;DHT22;17990;49.548;9.730;2023-08-08T02:16:45;13.30;99.90
16736;DHT22;17990;49.548;9.730;2023-08-08T02:19:12;13.30;99.90
16736;DHT22;17990;49.548;9.730;2023-08-08T02:21:38;13.20;99.90
16736;DHT22;17990;49.548;9.730;2023-08-08T02:24:05;13.20;99.90
16736;DHT22;17990;49.548;9.730;2023-08-08T02:26:32;13.20;99.90
16736;DHT22;17990;49.548;9.730;2023-08-08T02:28:59;13.10;99.90
16736;DHT22;17990;49.548;9.730;2023-08-08T02:31:25;13.10;99.90
16736;DHT22;17990;49.548;9.730;2023-08-08T02:33:53;13.00;99.90
16736;DHT22;17990;49.548;9.730;2023-08-08T02:36:21;12.90;99.90
16736;DHT22;17990;49.548;9.730;2023-08-08T02:38:47;12.80;99.90
16736;DHT22;17990;49.548;9.730;2023-08-08T02:41:15;12.90;99.90
16736;DHT22;17990;49.548;9.730;2023-08-08T02:43:41;12.80;99.90
16736;DHT22;17990;49.548;9.730;2023-08-08T02:46:08;12.70;99.90
16736;DHT22;17990;49.548;9.730;2023-08-08T02:48:35;12.60;99.90
16736;DHT22;17990;49.548;9.730;2023-08-08T02:51:03;12.40;99.90
16736;DHT22;17990;49.548;9.730;2023-08-08T02:53:30;12.30;99.90
16736;DHT22;17990;49.548;9.730;2023-08-08T02:55:56;12.30;99.90
16736;DHT22;17990;49.548;9.730;2023-08-08T02:58:23;12.20;99.90
16736;DHT22;17990;49.548;9.730;2023-08-08T03:00:50;12.10;99.90
16736;DHT22;17990;49.548;9.730;2023-08-08T03:03:18;12.00;99.90
16736;DHT22;17990;49.548;9.730;2023-08-08T03:05:44;12.00;99.90
16736;DHT22;17990;49.548;9.730;2023-08-08T03:08:13;11.90;99.90
16736;DHT22;17990;49.548;9.730;2023-08-08T03:10:39;11.90;99.90
16736;DHT22;17990;49.548;9.730;2023-08-08T03:13:06;11.90;99.90
16736;DHT22;17990;49.548;9.730;2023-08-08T03:15:33;11.80;99.90
16736;DHT22;17990;49.548;9.730;2023-08-08T03:18:00;11.80;99.90
16736;DHT22;17990;49.548;9.730;2023-08-08T03:20:27;11.70;99.90
16736;DHT22;17990;49.548;9.730;2023-08-08T03:22:54;11.70;99.90
16736;DHT22;17990;49.548;9.730;2023-08-08T03:25:22;11.70;99.90
16736;DHT22;17990;49.548;9.730;2023-08-08T03:27:49;11.60;99.90
16736;DHT22;17990;49.548;9.730;2023-08-08T03:30:16;11.60;99.90
16736;DHT22;17990;49.548;9.730;2023-08-08T03:32:43;11.60;99.90
16736;DHT22;17990;49.548;9.730;2023-08-08T03:35:09;11.50;99.90
16736;DHT22;17990;49.548;9.730;2023-08-08T03:37:36;11.50;99.90
16736;DHT22;17990;49.548;9.730;2023-08-08T03:40:04;11.40;99.90
16736;DHT22;17990;49.548;9.730;2023-08-08T03:42:34;11.40;99.90
16736;DHT22;17990;49.548;9.730;2023-08-08T03:45:01;11.40;99.90
16736;DHT22;17990;49.548;9.730;2023-08-08T03:47:28;11.30;99.90
16736;DHT22;17990;49.548;9.730;2023-08-08T03:49:55;11.30;99.90
16736;DHT22;17990;49.548;9.730;2023-08-08T03:52:23;11.30;99.90
16736;DHT22;17990;49.548;9.730;2023-08-08T03:54:49;11.30;99.90
16736;DHT22;17990;49.548;9.730;2023-08-08T03:57:16;11.20;99.90
16736;DHT22;17990;49.548;9.730;2023-08-08T03:59:44;11.20;99.90
16736;DHT22;17990;49.548;9.730;2023-08-08T04:02:11;11.20;99.90
16736;DHT22;17990;49.548;9.730;2023-08-08T04:04:37;11.20;99.90
16736;DHT22;17990;49.548;9.730;2023-08-08T04:07:05;11.20;99.90
16736;DHT22;17990;49.548;9.730;2023-08-08T04:09:31;11.10;99.90
16736;DHT22;17990;49.548;9.730;2023-08-08T04:11:59;11.10;99.90
16736;DHT22;17990;49.548;9.730;2023-08-08T04:14:25;11.10;99.90
16736;DHT22;17990;49.548;9.730;2023-08-08T04:16:54;11.10;99.90
16736;DHT22;17990;49.548;9.730;2023-08-08T04:19:20;11.20;99.90
16736;DHT22;17990;49.548;9.730;2023-08-08T04:21:48;11.20;99.90
16736;DHT22;17990;49.548;9.730;2023-08-08T04:24:15;11.20;99.90
16736;DHT22;17990;49.548;9.730;2023-08-08T04:26:42;11.40;99.90
16736;DHT22;17990;49.548;9.730;2023-08-08T04:29:08;11.50;99.90
16736;DHT22;17990;49.548;9.730;2023-08-08T04:31:35;11.70;99.90
16736;DHT22;17990;49.548;9.730;2023-08-08T04:34:03;11.80;99.90
16736;DHT22;17990;49.548;9.730;2023-08-08T04:36:30;11.90;99.90
16736;DHT22;17990;49.548;9.730;2023-08-08T04:38:56;11.90;99.90
16736;DHT22;17990;49.548;9.730;2023-08-08T04:41:23;12.00;99.90
16736;DHT22;17990;49.548;9.730;2023-08-08T04:43:50;12.10;99.90
16736;DHT22;17990;49.548;9.730;2023-08-08T04:46:17;12.10;99.90
16736;DHT22;17990;49.548;9.730;2023-08-08T04:48:44;12.20;99.90
16736;DHT22;17990;49.548;9.730;2023-08-08T04:51:12;12.30;99.90
16736;DHT22;17990;49.548;9.730;2023-08-08T04:53:38;12.40;99.90
16736;DHT22;17990;49.548;9.730;2023-08-08T04:56:05;12.50;99.90
16736;DHT22;17990;49.548;9.730;2023-08-08T04:58:32;12.50;99.90
16736;DHT22;17990;49.548;9.730;2023-08-08T05:00:59;12.60;99.90
16736;DHT22;17990;49.548;9.730;2023-08-08T05:03:25;12.80;99.90
16736;DHT22;17990;49.548;9.730;2023-08-08T05:05:52;12.90;99.90
16736;DHT22;17990;49.548;9.730;2023-08-08T05:08:20;13.00;99.90
16736;DHT22;17990;49.548;9.730;2023-08-08T05:10:47;13.20;99.90
16736;DHT22;17990;49.548;9.730;2023-08-08T05:13:14;13.40;99.90
16736;DHT22;17990;49.548;9.730;2023-08-08T05:15:40;13.60;99.90
16736;DHT22;17990;49.548;9.730;2023-08-08T05:18:07;13.90;99.90
16736;DHT22;17990;49.548;9.730;2023-08-08T05:20:34;14.10;99.90
16736;DHT22;17990;49.548;9.730;2023-08-08T05:23:01;14.10;99.90
16736;DHT22;17990;49.548;9.730;2023-08-08T05:25:29;14.30;99.90
16736;DHT22;17990;49.548;9.730;2023-08-08T05:27:55;14.40;99.90
16736;DHT22;17990;49.548;9.730;2023-08-08T05:30:23;14.30;99.90
16736;DHT22;17990;49.548;9.730;2023-08-08T05:32:49;14.20;99.90
16736;DHT22;17990;49.548;9.730;2023-08-08T05:35:16;14.30;99.90
16736;DHT22;17990;49.548;9.730;2023-08-08T05:37:43;14.30;99.90
16736;DHT22;17990;49.548;9.730;2023-08-08T05:40:10;14.50;99.90
16736;DHT22;17990;49.548;9.730;2023-08-08T05:42:38;14.70;99.90
16736;DHT22;17990;49.548;9.730;2023-08-08T05:45:06;14.70;99.90
16736;DHT22;17990;49.548;9.730;2023-08-08T05:47:33;14.70;99.90
16736;DHT22;17990;49.548;9.730;2023-08-08T05:50:00;14.70;99.90
16736;DHT22;17990;49.548;9.730;2023-08-08T05:52:27;14.70;99.90
16736;DHT22;17990;49.548;9.730;2023-08-08T05:54:54;14.90;99.90
16736;DHT22;17990;49.548;9.730;2023-08-08T05:57:21;14.90;99.90
16736;DHT22;17990;49.548;9.730;2023-08-08T05:59:49;15.10;99.90
16736;DHT22;17990;49.548;9.730;2023-08-08T06:02:16;15.10;99.90
16736;DHT22;17990;49.548;9.730;2023-08-08T06:04:42;15.70;99.90
16736;DHT22;17990;49.548;9.730;2023-08-08T06:07:09;16.10;99.90
16736;DHT22;17990;49.548;9.730;2023-08-08T06:09:36;20.60;99.90
16736;DHT22;17990;49.548;9.730;2023-08-08T06:12:04;19.80;99.90
16736;DHT22;17990;49.548;9.730;2023-08-08T06:14:31;19.10;99.90
16736;DHT22;17990;49.548;9.730;2023-08-08T06:16:59;19.10;99.90
16736;DHT22;17990;49.548;9.730;2023-08-08T06:19:26;23.40;99.90
16736;DHT22;17990;49.548;9.730;2023-08-08T06:21:53;25.70;99.90
16736;DHT22;17990;49.548;9.730;2023-08-08T06:24:19;26.80;99.90
16736;DHT22;17990;49.548;9.730;2023-08-08T06:26:46;28.00;99.90
16736;DHT22;17990;49.548;9.730;2023-08-08T06:29:13;28.30;97.90
16736;DHT22;17990;49.548;9.730;2023-08-08T06:31:40;28.60;96.10
16736;DHT22;17990;49.548;9.730;2023-08-08T06:34:08;29.30;94.10
16736;DHT22;17990;49.548;9.730;2023-08-08T06:36:35;29.90;92.70
16736;DHT22;17990;49.548;9.730;2023-08-08T06:39:02;30.40;91.30
16736;DHT22;17990;49.548;9.730;2023-08-08T06:41:29;31.40;89.40
16736;DHT22;17990;49.548;9.730;2023-08-08T06:43:56;31.80;85.70
16736;DHT22;17990;49.548;9.730;2023-08-08T06:46:23;32.20;82.00
16736;DHT22;17990;49.548;9.730;2023-08-08T06:48:51;32.10;80.80
16736;DHT22;17990;49.548;9.730;2023-08-08T06:51:23;32.40;79.00
16736;DHT22;17990;49.548;9.730;2023-08-08T06:53:50;32.60;77.20
16736;DHT22;17990;49.548;9.730;2023-08-08T06:56:17;33.20;75.50
16736;DHT22;17990;49.548;9.730;2023-08-08T06:58:44;32.80;75.30
16736;DHT22;17990;49.548;9.730;2023-08-08T07:01:10;32.80;74.10
16736;DHT22;17990;49.548;9.730;2023-08-08T07:03:37;33.40;72.30
16736;DHT22;17990;49.548;9.730;2023-08-08T07:06:04;33.60;71.80
16736;DHT22;17990;49.548;9.730;2023-08-08T07:08:32;33.90;69.60
16736;DHT22;17990;49.548;9.730;2023-08-08T07:10:59;33.80;68.70
16736;DHT22;17990;49.548;9.730;2023-08-08T07:13:26;32.60;69.70
16736;DHT22;17990;49.548;9.730;2023-08-08T07:15:53;33.10;69.70
16736;DHT22;17990;49.548;9.730;2023-08-08T07:18:19;32.90;69.60
16736;DHT22;17990;49.548;9.730;2023-08-08T07:20:46;33.60;68.40
16736;DHT22;17990;49.548;9.730;2023-08-08T07:23:13;33.60;67.40
16736;DHT22;17990;49.548;9.730;2023-08-08T07:25:41;34.40;66.20
16736;DHT22;17990;49.548;9.730;2023-08-08T07:28:08;34.40;64.70
16736;DHT22;17990;49.548;9.730;2023-08-08T07:30:35;34.30;63.90
16736;DHT22;17990;49.548;9.730;2023-08-08T07:33:02;34.50;63.90
16736;DHT22;17990;49.548;9.730;2023-08-08T07:35:37;34.60;62.30
16736;DHT22;17990;49.548;9.730;2023-08-08T07:38:04;34.30;62.30
16736;DHT22;17990;49.548;9.730;2023-08-08T07:40:31;34.40;61.00
16736;DHT22;17990;49.548;9.730;2023-08-08T07:42:59;33.30;62.50
16736;DHT22;17990;49.548;9.730;2023-08-08T07:45:25;32.90;63.90
16736;DHT22;17990;49.548;9.730;2023-08-08T07:47:52;32.40;64.80
16736;DHT22;17990;49.548;9.730;2023-08-08T07:50:19;31.50;66.00
16736;DHT22;17990;49.548;9.730;2023-08-08T07:52:45;31.10;67.40
16736;DHT22;17990;49.548;9.730;2023-08-08T07:55:12;30.80;68.50
16736;DHT22;17990;49.548;9.730;2023-08-08T07:57:39;31.00;67.60
16736;DHT22;17990;49.548;9.730;2023-08-08T08:00:08;31.20;66.80
16736;DHT22;17990;49.548;9.730;2023-08-08T08:02:37;30.00;68.60
16736;DHT22;17990;49.548;9.730;2023-08-08T08:05:04;29.10;70.70
16736;DHT22;17990;49.548;9.730;2023-08-08T08:07:33;28.10;73.20
16736;DHT22;17990;49.548;9.730;2023-08-08T08:10:00;28.30;72.70
16736;DHT22;17990;49.548;9.730;2023-08-08T08:12:27;28.70;72.30
16736;DHT22;17990;49.548;9.730;2023-08-08T08:14:54;28.20;73.60
16736;DHT22;17990;49.548;9.730;2023-08-08T08:17:22;27.00;74.00
16736;DHT22;17990;49.548;9.730;2023-08-08T08:19:49;26.30;77.60
16736;DHT22;17990;49.548;9.730;2023-08-08T08:22:16;26.70;77.10
16736;DHT22;17990;49.548;9.730;2023-08-08T08:24:43;26.90;77.30
16736;DHT22;17990;49.548;9.730;2023-08-08T08:27:10;27.30;75.30
16736;DHT22;17990;49.548;9.730;2023-08-08T08:29:36;28.70;73.30
16736;DHT22;17990;49.548;9.730;2023-08-08T08:32:04;29.10;72.20
16736;DHT22;17990;49.548;9.730;2023-08-08T08:34:32;29.80;69.50
16736;DHT22;17990;49.548;9.730;2023-08-08T08:36:59;29.50;68.10
16736;DHT22;17990;49.548;9.730;2023-08-08T08:39:26;27.50;71.70
16736;DHT22;17990;49.548;9.730;2023-08-08T08:41:56;27.60;72.40
16736;DHT22;17990;49.548;9.730;2023-08-08T08:44:27;27.40;73.10
16736;DHT22;17990;49.548;9.730;2023-08-08T08:46:57;27.60;72.00
16736;DHT22;17990;49.548;9.730;2023-08-08T08:49:28;27.40;72.40
16736;DHT22;17990;49.548;9.730;2023-08-08T08:51:57;26.80;73.80
16736;DHT22;17990;49.548;9.730;2023-08-08T08:54:27;26.60;75.40
16736;DHT22;17990;49.548;9.730;2023-08-08T08:56:55;27.00;74.20
16736;DHT22;17990;49.548;9.730;2023-08-08T08:59:22;27.30;73.60
16736;DHT22;17990;49.548;9.730;2023-08-08T09:01:49;27.20;75.00
16736;DHT22;17990;49.548;9.730;2023-08-08T09:04:18;27.10;75.20
16736;DHT22;17990;49.548;9.730;2023-08-08T09:06:47;26.90;75.50
16736;DHT22;17990;49.548;9.730;2023-08-08T09:09:16;26.10;75.70
16736;DHT22;17990;49.548;9.730;2023-08-08T09:11:44;25.60;76.80
16736;DHT22;17990;49.548;9.730;2023-08-08T09:14:17;25.20;77.80
16736;DHT22;17990;49.548;9.730;2023-08-08T09:16:45;25.40;78.00
16736;DHT22;17990;49.548;9.730;2023-08-08T09:19:12;25.10;76.60
16736;DHT22;17990;49.548;9.730;2023-08-08T09:21:39;25.20;76.00
16736;DHT22;17990;49.548;9.730;2023-08-08T09:24:06;25.40;76.00
16736;DHT22;17990;49.548;9.730;2023-08-08T09:26:34;25.30;76.30
16736;DHT22;17990;49.548;9.730;2023-08-08T09:29:01;25.50;76.80
16736;DHT22;17990;49.548;9.730;2023-08-08T09:31:28;25.40;77.60
16736;DHT22;17990;49.548;9.730;2023-08-08T09:33:56;25.20;75.40
16736;DHT22;17990;49.548;9.730;2023-08-08T09:36:24;25.10;74.30
16736;DHT22;17990;49.548;9.730;2023-08-08T09:38:51;25.10;75.50
16736;DHT22;17990;49.548;9.730;2023-08-08T09:41:18;25.00;74.30
16736;DHT22;17990;49.548;9.730;2023-08-08T09:43:47;24.50;74.80
16736;DHT22;17990;49.548;9.730;2023-08-08T09:46:14;24.50;76.50
16736;DHT22;17990;49.548;9.730;2023-08-08T09:48:41;24.50;77.30
16736;DHT22;17990;49.548;9.730;2023-08-08T09:51:09;24.70;77.30
16736;DHT22;17990;49.548;9.730;2023-08-08T09:53:36;24.80;77.60
16736;DHT22;17990;49.548;9.730;2023-08-08T09:56:04;24.60;77.90
16736;DHT22;17990;49.548;9.730;2023-08-08T09:58:31;24.60;76.90
16736;DHT22;17990;49.548;9.730;2023-08-08T10:01:00;24.30;77.90
16736;DHT22;17990;49.548;9.730;2023-08-08T10:03:29;24.30;78.60
16736;DHT22;17990;49.548;9.730;2023-08-08T10:05:56;24.20;78.10
16736;DHT22;17990;49.548;9.730;2023-08-08T10:08:23;23.80;78.50
16736;DHT22;17990;49.548;9.730;2023-08-08T10:10:50;23.70;79.60
16736;DHT22;17990;49.548;9.730;2023-08-08T10:13:21;23.50;80.10
16736;DHT22;17990;49.548;9.730;2023-08-08T10:15:48;23.50;79.90
16736;DHT22;17990;49.548;9.730;2023-08-08T10:18:17;23.60;80.00
16736;DHT22;17990;49.548;9.730;2023-08-08T10:20:46;23.80;80.90
16736;DHT22;17990;49.548;9.730;2023-08-08T10:23:14;23.80;81.90
16736;DHT22;17990;49.548;9.730;2023-08-08T10:25:44;23.90;82.60
16736;DHT22;17990;49.548;9.730;2023-08-08T10:28:13;23.90;81.20
16736;DHT22;17990;49.548;9.730;2023-08-08T10:30:44;23.60;80.40
16736;DHT22;17990;49.548;9.730;2023-08-08T10:33:23;23.60;81.70
16736;DHT22;17990;49.548;9.730;2023-08-08T10:35:54;23.80;81.40
16736;DHT22;17990;49.548;9.730;2023-08-08T10:38:23;23.90;79.80
16736;DHT22;17990;49.548;9.730;2023-08-08T10:40:57;23.90;80.20
16736;DHT22;17990;49.548;9.730;2023-08-08T10:43:28;24.10;82.00
16736;DHT22;17990;49.548;9.730;2023-08-08T10:45:58;24.60;80.60
16736;DHT22;17990;49.548;9.730;2023-08-08T10:48:26;24.50;81.10
16736;DHT22;17990;49.548;9.730;2023-08-08T10:50:55;24.60;80.60
16736;DHT22;17990;49.548;9.730;2023-08-08T10:53:23;24.40;81.60
16736;DHT22;17990;49.548;9.730;2023-08-08T10:55:57;24.10;80.80
16736;DHT22;17990;49.548;9.730;2023-08-08T10:58:35;23.90;82.00
16736;DHT22;17990;49.548;9.730;2023-08-08T11:01:03;23.70;82.50
16736;DHT22;17990;49.548;9.730;2023-08-08T11:03:35;23.30;82.30
16736;DHT22;17990;49.548;9.730;2023-08-08T11:06:02;23.40;83.20
16736;DHT22;17990;49.548;9.730;2023-08-08T11:08:30;23.80;82.00
16736;DHT22;17990;49.548;9.730;2023-08-08T11:10:58;23.80;81.30
16736;DHT22;17990;49.548;9.730;2023-08-08T11:13:25;23.90;81.00
16736;DHT22;17990;49.548;9.730;2023-08-08T11:15:52;23.70;81.20
16736;DHT22;17990;49.548;9.730;2023-08-08T11:18:19;24.00;80.80
16736;DHT22;17990;49.548;9.730;2023-08-08T11:20:49;24.00;80.50
16736;DHT22;17990;49.548;9.730;2023-08-08T11:23:16;24.00;80.90
16736;DHT22;17990;49.548;9.730;2023-08-08T11:25:45;23.90;81.10
16736;DHT22;17990;49.548;9.730;2023-08-08T11:28:12;23.80;81.40
16736;DHT22;17990;49.548;9.730;2023-08-08T11:30:41;23.90;80.80
16736;DHT22;17990;49.548;9.730;2023-08-08T11:33:09;24.20;81.00
16736;DHT22;17990;49.548;9.730;2023-08-08T11:35:36;24.30;79.70
16736;DHT22;17990;49.548;9.730;2023-08-08T11:38:05;24.30;81.20
16736;DHT22;17990;49.548;9.730;2023-08-08T11:40:32;24.60;81.10
16736;DHT22;17990;49.548;9.730;2023-08-08T11:42:59;24.50;80.80
16736;DHT22;17990;49.548;9.730;2023-08-08T11:45:26;24.60;79.70
16736;DHT22;17990;49.548;9.730;2023-08-08T11:47:55;24.60;81.00
16736;DHT22;17990;49.548;9.730;2023-08-08T11:50:23;24.60;80.20
16736;DHT22;17990;49.548;9.730;2023-08-08T11:52:51;24.10;80.60
16736;DHT22;17990;49.548;9.730;2023-08-08T11:55:21;24.10;81.80
16736;DHT22;17990;49.548;9.730;2023-08-08T11:57:49;24.20;80.60
16736;DHT22;17990;49.548;9.730;2023-08-08T12:00:18;24.40;79.60
16736;DHT22;17990;49.548;9.730;2023-08-08T12:02:45;24.10;80.80
16736;DHT22;17990;49.548;9.730;2023-08-08T12:05:14;24.20;80.60
16736;DHT22;17990;49.548;9.730;2023-08-08T12:07:42;24.20;79.40
16736;DHT22;17990;49.548;9.730;2023-08-08T12:10:14;24.10;79.20
16736;DHT22;17990;49.548;9.730;2023-08-08T12:12:43;24.20;78.20
16736;DHT22;17990;49.548;9.730;2023-08-08T12:15:10;24.20;78.50
16736;DHT22;17990;49.548;9.730;2023-08-08T12:17:37;23.90;80.30
16736;DHT22;17990;49.548;9.730;2023-08-08T12:20:06;24.40;79.00
16736;DHT22;17990;49.548;9.730;2023-08-08T12:22:33;24.60;79.50
16736;DHT22;17990;49.548;9.730;2023-08-08T12:25:00;24.60;77.70
16736;DHT22;17990;49.548;9.730;2023-08-08T12:27:27;24.50;78.80
16736;DHT22;17990;49.548;9.730;2023-08-08T12:29:55;24.80;78.70
16736;DHT22;17990;49.548;9.730;2023-08-08T12:32:22;24.90;78.30
16736;DHT22;17990;49.548;9.730;2023-08-08T12:34:50;24.90;78.20
16736;DHT22;17990;49.548;9.730;2023-08-08T12:37:16;24.90;77.50
16736;DHT22;17990;49.548;9.730;2023-08-08T12:39:43;24.80;76.50
16736;DHT22;17990;49.548;9.730;2023-08-08T12:42:10;24.70;76.30
16736;DHT22;17990;49.548;9.730;2023-08-08T12:44:36;24.90;76.80
16736;DHT22;17990;49.548;9.730;2023-08-08T12:47:05;25.10;76.90
16736;DHT22;17990;49.548;9.730;2023-08-08T12:49:32;25.50;77.50
16736;DHT22;17990;49.548;9.730;2023-08-08T12:51:59;25.20;74.10
16736;DHT22;17990;49.548;9.730;2023-08-08T12:54:25;24.90;74.90
16736;DHT22;17990;49.548;9.730;2023-08-08T12:56:52;24.70;75.20
16736;DHT22;17990;49.548;9.730;2023-08-08T12:59:19;24.70;73.80
16736;DHT22;17990;49.548;9.730;2023-08-08T13:01:45;24.90;73.80
16736;DHT22;17990;49.548;9.730;2023-08-08T13:04:14;25.10;76.00
16736;DHT22;17990;49.548;9.730;2023-08-08T13:06:41;25.30;76.10
16736;DHT22;17990;49.548;9.730;2023-08-08T13:09:07;25.00;75.60
16736;DHT22;17990;49.548;9.730;2023-08-08T13:11:34;24.80;77.30
16736;DHT22;17990;49.548;9.730;2023-08-08T13:14:01;24.80;77.20
16736;DHT22;17990;49.548;9.730;2023-08-08T13:16:28;24.60;77.30
16736;DHT22;17990;49.548;9.730;2023-08-08T13:18:54;24.60;77.80
16736;DHT22;17990;49.548;9.730;2023-08-08T13:21:22;24.60;78.30
16736;DHT22;17990;49.548;9.730;2023-08-08T13:23:49;24.90;77.60
16736;DHT22;17990;49.548;9.730;2023-08-08T13:26:16;24.80;76.60
16736;DHT22;17990;49.548;9.730;2023-08-08T13:28:42;24.70;75.10
16736;DHT22;17990;49.548;9.730;2023-08-08T13:31:09;24.60;76.30
16736;DHT22;17990;49.548;9.730;2023-08-08T13:33:36;24.20;76.20
16736;DHT22;17990;49.548;9.730;2023-08-08T13:36:03;24.20;75.30
16736;DHT22;17990;49.548;9.730;2023-08-08T13:38:31;24.30;76.10
16736;DHT22;17990;49.548;9.730;2023-08-08T13:40:58;24.50;74.90
16736;DHT22;17990;49.548;9.730;2023-08-08T13:43:25;24.30;74.40
16736;DHT22;17990;49.548;9.730;2023-08-08T13:45:52;24.40;73.30
16736;DHT22;17990;49.548;9.730;2023-08-08T13:48:19;24.60;72.80
16736;DHT22;17990;49.548;9.730;2023-08-08T13:50:45;24.60;73.40
16736;DHT22;17990;49.548;9.730;2023-08-08T13:53:12;24.30;73.50
16736;DHT22;17990;49.548;9.730;2023-08-08T13:55:40;24.20;73.40
16736;DHT22;17990;49.548;9.730;2023-08-08T13:58:09;24.40;73.60
16736;DHT22;17990;49.548;9.730;2023-08-08T14:00:36;24.40;72.00
16736;DHT22;17990;49.548;9.730;2023-08-08T14:03:04;24.20;72.10
16736;DHT22;17990;49.548;9.730;2023-08-08T14:05:32;24.10;72.40
16736;DHT22;17990;49.548;9.730;2023-08-08T14:07:59;24.20;72.30
16736;DHT22;17990;49.548;9.730;2023-08-08T14:10:25;24.00;72.70
16736;DHT22;17990;49.548;9.730;2023-08-08T14:12:53;24.00;71.90
16736;DHT22;17990;49.548;9.730;2023-08-08T14:15:20;24.00;72.70
16736;DHT22;17990;49.548;9.730;2023-08-08T14:17:47;23.80;73.10
16736;DHT22;17990;49.548;9.730;2023-08-08T14:20:14;24.00;74.20
16736;DHT22;17990;49.548;9.730;2023-08-08T14:22:44;24.40;74.50
16736;DHT22;17990;49.548;9.730;2023-08-08T14:25:11;24.60;72.20
16736;DHT22;17990;49.548;9.730;2023-08-08T14:27:38;24.40;71.60
16736;DHT22;17990;49.548;9.730;2023-08-08T14:30:07;24.40;71.50
16736;DHT22;17990;49.548;9.730;2023-08-08T14:32:34;24.20;72.00
16736;DHT22;17990;49.548;9.730;2023-08-08T14:35:01;24.10;72.80
16736;DHT22;17990;49.548;9.730;2023-08-08T14:37:28;24.20;71.80
16736;DHT22;17990;49.548;9.730;2023-08-08T14:39:54;24.30;70.90
16736;DHT22;17990;49.548;9.730;2023-08-08T14:42:21;24.40;70.00
16736;DHT22;17990;49.548;9.730;2023-08-08T14:44:48;24.30;70.70
16736;DHT22;17990;49.548;9.730;2023-08-08T14:47:16;24.40;71.40
16736;DHT22;17990;49.548;9.730;2023-08-08T14:49:43;24.40;70.90
16736;DHT22;17990;49.548;9.730;2023-08-08T14:52:09;24.20;70.10
16736;DHT22;17990;49.548;9.730;2023-08-08T14:54:36;24.10;69.30
16736;DHT22;17990;49.548;9.730;2023-08-08T14:57:03;24.00;70.20
16736;DHT22;17990;49.548;9.730;2023-08-08T14:59:30;24.10;70.60
16736;DHT22;17990;49.548;9.730;2023-08-08T15:01:57;23.90;69.60
16736;DHT22;17990;49.548;9.730;2023-08-08T15:04:25;23.80;69.20
16736;DHT22;17990;49.548;9.730;2023-08-08T15:06:52;23.80;69.50
16736;DHT22;17990;49.548;9.730;2023-08-08T15:09:19;23.80;70.10
16736;DHT22;17990;49.548;9.730;2023-08-08T15:11:45;23.70;70.30
16736;DHT22;17990;49.548;9.730;2023-08-08T15:14:12;23.80;70.90
16736;DHT22;17990;49.548;9.730;2023-08-08T15:16:39;23.60;70.90
16736;DHT22;17990;49.548;9.730;2023-08-08T15:19:05;23.60;71.30
16736;DHT22;17990;49.548;9.730;2023-08-08T15:21:34;23.30;72.10
16736;DHT22;17990;49.548;9.730;2023-08-08T15:24:00;23.10;73.20
16736;DHT22;17990;49.548;9.730;2023-08-08T15:26:27;22.90;73.60
16736;DHT22;17990;49.548;9.730;2023-08-08T15:28:54;22.80;74.80
16736;DHT22;17990;49.548;9.730;2023-08-08T15:31:20;22.90;74.30